sensor_id;sensor_type;location;lat;lon;timestamp;P1;durP1;ratioP1;P2;durP2;ratioP2
67130;SDS011;54051;53.464;49.532;2022-09-09T00:00:20;5.10;;;2.63;;
67130;SDS011;54051;53.464;49.532;2022-09-09T00:02:49;5.32;;;2.95;;
67130;SDS011;54051;53.464;49.532;2022-09-09T00:05:31;5.00;;;2.70;;
67130;SDS011;54051;53.464;49.532;2022-09-09T00:08:03;4.65;;;2.58;;
67130;SDS011;54051;53.464;49.532;2022-09-09T00:10:30;5.10;;;2.78;;
67130;SDS011;54051;53.464;49.532;2022-09-09T00:15:57;5.57;;;3.00;;
67130;SDS011;54051;53.464;49.532;2022-09-09T00:21:12;6.22;;;3.00;;
67130;SDS011;54051;53.464;49.532;2022-09-09T00:23:47;7.22;;;3.42;;
67130;SDS011;54051;53.464;49.532;2022-09-09T00:31:34;5.65;;;2.85;;
67130;SDS011;54051;53.464;49.532;2022-09-09T00:34:04;5.15;;;2.58;;
67130;SDS011;54051;53.464;49.532;2022-09-09T00:36:38;4.90;;;2.50;;
67130;SDS011;54051;53.464;49.532;2022-09-09T00:44:37;7.32;;;2.90;;
67130;SDS011;54051;53.464;49.532;2022-09-09T00:58:47;5.03;;;2.65;;
67130;SDS011;54051;53.464;49.532;2022-09-09T01:01:24;5.32;;;2.60;;
67130;SDS011;54051;53.464;49.532;2022-09-09T01:03:54;5.28;;;2.60;;
67130;SDS011;54051;53.464;49.532;2022-09-09T01:06:31;5.43;;;2.80;;
67130;SDS011;54051;53.464;49.532;2022-09-09T01:14:48;4.60;;;2.40;;
67130;SDS011;54051;53.464;49.532;2022-09-09T01:17:24;5.78;;;2.33;;
67130;SDS011;54051;53.464;49.532;2022-09-09T01:26:04;4.10;;;2.15;;
67130;SDS011;54051;53.464;49.532;2022-09-09T01:28:33;4.60;;;2.30;;
67130;SDS011;54051;53.464;49.532;2022-09-09T01:31:03;5.32;;;2.75;;
67130;SDS011;54051;53.464;49.532;2022-09-09T01:33:31;4.90;;;2.53;;
67130;SDS011;54051;53.464;49.532;2022-09-09T01:38:30;5.55;;;2.67;;
67130;SDS011;54051;53.464;49.532;2022-09-09T01:40:58;5.82;;;2.60;;
67130;SDS011;54051;53.464;49.532;2022-09-09T01:43:24;4.20;;;2.10;;
67130;SDS011;54051;53.464;49.532;2022-09-09T01:45:56;4.60;;;2.50;;
67130;SDS011;54051;53.464;49.532;2022-09-09T01:48:25;4.82;;;2.30;;
67130;SDS011;54051;53.464;49.532;2022-09-09T01:50:52;5.18;;;2.35;;
67130;SDS011;54051;53.464;49.532;2022-09-09T01:53:19;5.80;;;2.60;;
67130;SDS011;54051;53.464;49.532;2022-09-09T01:56:10;5.10;;;2.42;;
67130;SDS011;54051;53.464;49.532;2022-09-09T02:01:34;5.25;;;2.35;;
67130;SDS011;54051;53.464;49.532;2022-09-09T02:04:08;4.80;;;2.20;;
67130;SDS011;54051;53.464;49.532;2022-09-09T02:06:46;5.70;;;2.80;;
67130;SDS011;54051;53.464;49.532;2022-09-09T02:09:15;5.03;;;2.60;;
67130;SDS011;54051;53.464;49.532;2022-09-09T02:11:44;5.18;;;2.42;;
67130;SDS011;54051;53.464;49.532;2022-09-09T02:14:14;6.05;;;2.50;;
67130;SDS011;54051;53.464;49.532;2022-09-09T02:16:44;6.38;;;2.80;;
67130;SDS011;54051;53.464;49.532;2022-09-09T02:19:23;5.30;;;2.78;;
67130;SDS011;54051;53.464;49.532;2022-09-09T02:22:11;5.38;;;2.70;;
67130;SDS011;54051;53.464;49.532;2022-09-09T02:24:39;5.05;;;2.50;;
67130;SDS011;54051;53.464;49.532;2022-09-09T02:27:06;5.90;;;2.58;;
67130;SDS011;54051;53.464;49.532;2022-09-09T02:29:43;5.85;;;3.05;;
67130;SDS011;54051;53.464;49.532;2022-09-09T02:32:15;5.43;;;2.88;;
67130;SDS011;54051;53.464;49.532;2022-09-09T02:34:51;6.40;;;3.00;;
67130;SDS011;54051;53.464;49.532;2022-09-09T02:37:23;5.15;;;2.63;;
67130;SDS011;54051;53.464;49.532;2022-09-09T02:39:54;6.32;;;2.95;;
67130;SDS011;54051;53.464;49.532;2022-09-09T02:42:20;6.32;;;3.00;;
67130;SDS011;54051;53.464;49.532;2022-09-09T02:44:46;7.07;;;3.00;;
67130;SDS011;54051;53.464;49.532;2022-09-09T02:47:26;5.50;;;3.00;;
67130;SDS011;54051;53.464;49.532;2022-09-09T02:50:04;7.93;;;3.70;;
67130;SDS011;54051;53.464;49.532;2022-09-09T02:55:43;6.20;;;3.00;;
67130;SDS011;54051;53.464;49.532;2022-09-09T02:58:15;5.93;;;3.05;;
67130;SDS011;54051;53.464;49.532;2022-09-09T03:00:43;5.78;;;2.67;;
67130;SDS011;54051;53.464;49.532;2022-09-09T03:03:11;7.43;;;3.20;;
67130;SDS011;54051;53.464;49.532;2022-09-09T03:05:38;6.82;;;3.00;;
67130;SDS011;54051;53.464;49.532;2022-09-09T03:08:04;7.13;;;3.05;;
67130;SDS011;54051;53.464;49.532;2022-09-09T03:10:34;5.68;;;3.10;;
67130;SDS011;54051;53.464;49.532;2022-09-09T03:13:02;6.18;;;3.47;;
67130;SDS011;54051;53.464;49.532;2022-09-09T03:15:31;6.95;;;3.50;;
67130;SDS011;54051;53.464;49.532;2022-09-09T03:17:59;6.65;;;3.30;;
67130;SDS011;54051;53.464;49.532;2022-09-09T03:20:25;6.22;;;3.08;;
67130;SDS011;54051;53.464;49.532;2022-09-09T03:22:53;6.20;;;3.10;;
67130;SDS011;54051;53.464;49.532;2022-09-09T03:25:19;5.90;;;3.35;;
67130;SDS011;54051;53.464;49.532;2022-09-09T03:27:46;6.07;;;2.97;;
67130;SDS011;54051;53.464;49.532;2022-09-09T03:30:12;6.60;;;3.40;;
67130;SDS011;54051;53.464;49.532;2022-09-09T03:35:05;6.88;;;3.50;;
67130;SDS011;54051;53.464;49.532;2022-09-09T03:37:32;6.85;;;3.92;;
67130;SDS011;54051;53.464;49.532;2022-09-09T03:39:58;6.07;;;3.40;;
67130;SDS011;54051;53.464;49.532;2022-09-09T03:42:25;6.75;;;3.63;;
67130;SDS011;54051;53.464;49.532;2022-09-09T03:44:51;6.27;;;3.20;;
67130;SDS011;54051;53.464;49.532;2022-09-09T03:47:17;7.40;;;3.67;;
67130;SDS011;54051;53.464;49.532;2022-09-09T03:49:45;6.57;;;3.58;;
67130;SDS011;54051;53.464;49.532;2022-09-09T03:52:12;6.47;;;3.40;;
67130;SDS011;54051;53.464;49.532;2022-09-09T03:54:38;9.00;;;4.05;;
67130;SDS011;54051;53.464;49.532;2022-09-09T03:57:04;6.97;;;3.50;;
67130;SDS011;54051;53.464;49.532;2022-09-09T03:59:30;7.05;;;3.10;;
67130;SDS011;54051;53.464;49.532;2022-09-09T04:01:56;7.10;;;3.53;;
67130;SDS011;54051;53.464;49.532;2022-09-09T04:04:24;7.28;;;3.30;;
67130;SDS011;54051;53.464;49.532;2022-09-09T04:06:51;5.93;;;3.38;;
67130;SDS011;54051;53.464;49.532;2022-09-09T04:09:18;7.80;;;3.58;;
67130;SDS011;54051;53.464;49.532;2022-09-09T04:11:44;6.97;;;3.28;;
67130;SDS011;54051;53.464;49.532;2022-09-09T04:14:11;7.18;;;4.05;;
67130;SDS011;54051;53.464;49.532;2022-09-09T04:16:38;8.00;;;4.05;;
67130;SDS011;54051;53.464;49.532;2022-09-09T04:19:04;7.13;;;3.83;;
67130;SDS011;54051;53.464;49.532;2022-09-09T04:21:33;6.55;;;3.60;;
67130;SDS011;54051;53.464;49.532;2022-09-09T04:23:59;5.97;;;3.63;;
67130;SDS011;54051;53.464;49.532;2022-09-09T04:26:25;6.15;;;3.60;;
67130;SDS011;54051;53.464;49.532;2022-09-09T04:28:51;6.47;;;3.90;;
67130;SDS011;54051;53.464;49.532;2022-09-09T04:31:18;8.52;;;3.70;;
67130;SDS011;54051;53.464;49.532;2022-09-09T04:33:46;6.60;;;3.83;;
67130;SDS011;54051;53.464;49.532;2022-09-09T04:36:12;6.93;;;4.00;;
67130;SDS011;54051;53.464;49.532;2022-09-09T04:38:39;6.60;;;3.92;;
67130;SDS011;54051;53.464;49.532;2022-09-09T04:41:05;6.75;;;3.92;;
67130;SDS011;54051;53.464;49.532;2022-09-09T04:43:31;7.18;;;4.28;;
67130;SDS011;54051;53.464;49.532;2022-09-09T04:45:58;7.18;;;4.20;;
67130;SDS011;54051;53.464;49.532;2022-09-09T04:48:26;7.45;;;3.83;;
67130;SDS011;54051;53.464;49.532;2022-09-09T04:50:56;7.20;;;3.80;;
67130;SDS011;54051;53.464;49.532;2022-09-09T04:53:32;6.82;;;4.13;;
67130;SDS011;54051;53.464;49.532;2022-09-09T04:58:33;7.28;;;3.60;;
67130;SDS011;54051;53.464;49.532;2022-09-09T05:01:06;6.05;;;3.50;;
67130;SDS011;54051;53.464;49.532;2022-09-09T05:03:34;6.85;;;4.10;;
67130;SDS011;54051;53.464;49.532;2022-09-09T05:06:05;7.88;;;4.60;;
67130;SDS011;54051;53.464;49.532;2022-09-09T05:08:34;7.13;;;4.20;;
67130;SDS011;54051;53.464;49.532;2022-09-09T05:11:01;7.78;;;4.10;;
67130;SDS011;54051;53.464;49.532;2022-09-09T05:13:27;7.75;;;4.10;;
67130;SDS011;54051;53.464;49.532;2022-09-09T05:15:53;8.60;;;4.68;;
67130;SDS011;54051;53.464;49.532;2022-09-09T05:18:20;7.70;;;4.25;;
67130;SDS011;54051;53.464;49.532;2022-09-09T05:20:48;7.25;;;4.13;;
67130;SDS011;54051;53.464;49.532;2022-09-09T05:23:14;7.20;;;3.85;;
67130;SDS011;54051;53.464;49.532;2022-09-09T05:25:40;8.43;;;4.53;;
67130;SDS011;54051;53.464;49.532;2022-09-09T05:28:06;7.85;;;3.83;;
67130;SDS011;54051;53.464;49.532;2022-09-09T05:30:33;6.63;;;4.20;;
67130;SDS011;54051;53.464;49.532;2022-09-09T05:35:25;8.85;;;4.18;;
67130;SDS011;54051;53.464;49.532;2022-09-09T05:37:52;5.13;;;2.25;;
67130;SDS011;54051;53.464;49.532;2022-09-09T05:40:18;4.38;;;1.77;;
67130;SDS011;54051;53.464;49.532;2022-09-09T05:42:44;3.53;;;1.70;;
67130;SDS011;54051;53.464;49.532;2022-09-09T05:45:10;6.47;;;2.30;;
67130;SDS011;54051;53.464;49.532;2022-09-09T05:47:36;4.18;;;1.77;;
67130;SDS011;54051;53.464;49.532;2022-09-09T05:50:03;3.30;;;1.30;;
67130;SDS011;54051;53.464;49.532;2022-09-09T05:52:30;4.35;;;1.40;;
67130;SDS011;54051;53.464;49.532;2022-09-09T05:54:57;3.85;;;1.50;;
67130;SDS011;54051;53.464;49.532;2022-09-09T05:57:24;4.40;;;2.10;;
67130;SDS011;54051;53.464;49.532;2022-09-09T05:59:50;3.80;;;1.87;;
67130;SDS011;54051;53.464;49.532;2022-09-09T06:02:16;4.53;;;2.15;;
67130;SDS011;54051;53.464;49.532;2022-09-09T06:04:42;5.20;;;2.28;;
67130;SDS011;54051;53.464;49.532;2022-09-09T06:07:08;5.38;;;2.30;;
67130;SDS011;54051;53.464;49.532;2022-09-09T06:09:34;4.53;;;2.00;;
67130;SDS011;54051;53.464;49.532;2022-09-09T06:12:00;3.60;;;1.70;;
67130;SDS011;54051;53.464;49.532;2022-09-09T06:14:26;4.80;;;1.97;;
67130;SDS011;54051;53.464;49.532;2022-09-09T06:16:52;5.43;;;2.45;;
67130;SDS011;54051;53.464;49.532;2022-09-09T06:19:18;6.68;;;3.15;;
67130;SDS011;54051;53.464;49.532;2022-09-09T06:21:45;8.07;;;3.55;;
67130;SDS011;54051;53.464;49.532;2022-09-09T06:24:13;4.72;;;2.40;;
67130;SDS011;54051;53.464;49.532;2022-09-09T06:26:42;6.85;;;2.55;;
67130;SDS011;54051;53.464;49.532;2022-09-09T06:29:08;8.27;;;3.40;;
67130;SDS011;54051;53.464;49.532;2022-09-09T06:31:35;5.93;;;3.00;;
67130;SDS011;54051;53.464;49.532;2022-09-09T06:34:03;8.45;;;3.35;;
67130;SDS011;54051;53.464;49.532;2022-09-09T06:36:31;7.55;;;2.85;;
67130;SDS011;54051;53.464;49.532;2022-09-09T06:38:58;5.38;;;2.53;;
67130;SDS011;54051;53.464;49.532;2022-09-09T06:41:26;5.72;;;2.55;;
67130;SDS011;54051;53.464;49.532;2022-09-09T06:43:54;4.57;;;2.22;;
67130;SDS011;54051;53.464;49.532;2022-09-09T06:46:21;5.32;;;2.40;;
67130;SDS011;54051;53.464;49.532;2022-09-09T06:48:53;8.55;;;4.55;;
67130;SDS011;54051;53.464;49.532;2022-09-09T06:51:25;9.43;;;4.80;;
67130;SDS011;54051;53.464;49.532;2022-09-09T06:53:56;7.78;;;4.30;;
67130;SDS011;54051;53.464;49.532;2022-09-09T06:56:33;4.28;;;1.70;;
67130;SDS011;54051;53.464;49.532;2022-09-09T06:59:07;4.82;;;1.77;;
67130;SDS011;54051;53.464;49.532;2022-09-09T07:01:35;4.75;;;2.35;;
67130;SDS011;54051;53.464;49.532;2022-09-09T07:04:03;4.53;;;1.90;;
67130;SDS011;54051;53.464;49.532;2022-09-09T07:06:33;7.30;;;3.65;;
67130;SDS011;54051;53.464;49.532;2022-09-09T07:09:03;6.60;;;3.40;;
67130;SDS011;54051;53.464;49.532;2022-09-09T07:11:32;5.40;;;2.75;;
67130;SDS011;54051;53.464;49.532;2022-09-09T07:14:02;3.97;;;1.70;;
67130;SDS011;54051;53.464;49.532;2022-09-09T07:16:28;3.90;;;1.60;;
67130;SDS011;54051;53.464;49.532;2022-09-09T07:18:56;3.67;;;1.42;;
67130;SDS011;54051;53.464;49.532;2022-09-09T07:21:26;4.13;;;1.70;;
67130;SDS011;54051;53.464;49.532;2022-09-09T07:23:53;4.35;;;1.80;;
67130;SDS011;54051;53.464;49.532;2022-09-09T07:26:20;4.75;;;2.08;;
67130;SDS011;54051;53.464;49.532;2022-09-09T07:28:49;6.20;;;3.03;;
67130;SDS011;54051;53.464;49.532;2022-09-09T07:31:19;3.47;;;1.42;;
67130;SDS011;54051;53.464;49.532;2022-09-09T07:39:16;4.22;;;1.55;;
67130;SDS011;54051;53.464;49.532;2022-09-09T07:47:08;4.45;;;1.60;;
67130;SDS011;54051;53.464;49.532;2022-09-09T07:49:34;5.20;;;1.70;;
67130;SDS011;54051;53.464;49.532;2022-09-09T07:52:00;3.50;;;1.50;;
67130;SDS011;54051;53.464;49.532;2022-09-09T07:54:26;4.33;;;1.80;;
67130;SDS011;54051;53.464;49.532;2022-09-09T07:56:52;5.70;;;1.90;;
67130;SDS011;54051;53.464;49.532;2022-09-09T07:59:18;5.70;;;1.88;;
67130;SDS011;54051;53.464;49.532;2022-09-09T08:01:53;4.75;;;1.55;;
67130;SDS011;54051;53.464;49.532;2022-09-09T08:04:20;4.68;;;1.40;;
67130;SDS011;54051;53.464;49.532;2022-09-09T08:06:54;4.40;;;1.60;;
67130;SDS011;54051;53.464;49.532;2022-09-09T08:09:22;3.40;;;1.25;;
67130;SDS011;54051;53.464;49.532;2022-09-09T08:11:54;3.83;;;1.40;;
67130;SDS011;54051;53.464;49.532;2022-09-09T08:14:22;3.55;;;1.40;;
67130;SDS011;54051;53.464;49.532;2022-09-09T08:19:15;4.72;;;1.80;;
67130;SDS011;54051;53.464;49.532;2022-09-09T08:21:42;3.88;;;1.77;;
67130;SDS011;54051;53.464;49.532;2022-09-09T08:24:10;4.47;;;1.83;;
67130;SDS011;54051;53.464;49.532;2022-09-09T08:26:37;4.18;;;1.70;;
67130;SDS011;54051;53.464;49.532;2022-09-09T08:29:08;4.07;;;1.80;;
67130;SDS011;54051;53.464;49.532;2022-09-09T08:31:36;5.53;;;2.90;;
67130;SDS011;54051;53.464;49.532;2022-09-09T08:34:04;3.47;;;1.65;;
67130;SDS011;54051;53.464;49.532;2022-09-09T08:36:32;3.47;;;1.40;;
67130;SDS011;54051;53.464;49.532;2022-09-09T08:39:00;3.95;;;1.80;;
67130;SDS011;54051;53.464;49.532;2022-09-09T08:52:00;11.25;;;5.97;;
67130;SDS011;54051;53.464;49.532;2022-09-09T08:54:27;4.55;;;1.70;;
67130;SDS011;54051;53.464;49.532;2022-09-09T08:56:59;4.38;;;2.00;;
67130;SDS011;54051;53.464;49.532;2022-09-09T08:59:25;3.93;;;1.13;;
67130;SDS011;54051;53.464;49.532;2022-09-09T09:08:12;2.90;;;0.93;;
67130;SDS011;54051;53.464;49.532;2022-09-09T09:10:54;4.23;;;1.60;;
67130;SDS011;54051;53.464;49.532;2022-09-09T09:13:37;3.47;;;1.13;;
67130;SDS011;54051;53.464;49.532;2022-09-09T09:19:23;3.00;;;1.00;;
67130;SDS011;54051;53.464;49.532;2022-09-09T09:25:15;5.10;;;1.00;;
67130;SDS011;54051;53.464;49.532;2022-09-09T09:28:07;2.83;;;0.98;;
67130;SDS011;54051;53.464;49.532;2022-09-09T09:30:44;3.47;;;0.93;;
67130;SDS011;54051;53.464;49.532;2022-09-09T09:33:19;3.03;;;0.90;;
67130;SDS011;54051;53.464;49.532;2022-09-09T09:36:08;3.95;;;1.30;;
67130;SDS011;54051;53.464;49.532;2022-09-09T09:38:35;2.97;;;0.93;;
67130;SDS011;54051;53.464;49.532;2022-09-09T09:41:02;2.25;;;0.82;;
67130;SDS011;54051;53.464;49.532;2022-09-09T09:43:35;4.80;;;1.60;;
67130;SDS011;54051;53.464;49.532;2022-09-09T09:46:05;2.72;;;0.90;;
67130;SDS011;54051;53.464;49.532;2022-09-09T09:49:01;3.40;;;1.20;;
67130;SDS011;54051;53.464;49.532;2022-09-09T09:51:31;2.60;;;0.93;;
67130;SDS011;54051;53.464;49.532;2022-09-09T09:54:08;3.90;;;1.13;;
67130;SDS011;54051;53.464;49.532;2022-09-09T09:56:35;2.60;;;0.90;;
67130;SDS011;54051;53.464;49.532;2022-09-09T09:59:01;2.25;;;0.82;;
67130;SDS011;54051;53.464;49.532;2022-09-09T10:01:29;2.97;;;0.85;;
67130;SDS011;54051;53.464;49.532;2022-09-09T10:06:53;3.20;;;1.00;;
67130;SDS011;54051;53.464;49.532;2022-09-09T10:09:29;3.78;;;1.20;;
67130;SDS011;54051;53.464;49.532;2022-09-09T10:15:06;3.00;;;1.00;;
67130;SDS011;54051;53.464;49.532;2022-09-09T10:25:49;3.97;;;1.00;;
67130;SDS011;54051;53.464;49.532;2022-09-09T10:33:44;3.30;;;1.00;;
67130;SDS011;54051;53.464;49.532;2022-09-09T10:36:19;3.17;;;1.00;;
67130;SDS011;54051;53.464;49.532;2022-09-09T10:38:52;3.60;;;0.90;;
67130;SDS011;54051;53.464;49.532;2022-09-09T10:52:21;3.45;;;0.90;;
67130;SDS011;54051;53.464;49.532;2022-09-09T11:02:45;3.63;;;1.10;;
67130;SDS011;54051;53.464;49.532;2022-09-09T11:08:13;4.10;;;1.13;;
67130;SDS011;54051;53.464;49.532;2022-09-09T11:10:44;2.83;;;1.00;;
67130;SDS011;54051;53.464;49.532;2022-09-09T11:13:35;2.85;;;1.00;;
67130;SDS011;54051;53.464;49.532;2022-09-09T11:21:21;3.42;;;1.38;;
67130;SDS011;54051;53.464;49.532;2022-09-09T11:24:05;3.00;;;1.10;;
67130;SDS011;54051;53.464;49.532;2022-09-09T11:26:45;4.20;;;1.30;;
67130;SDS011;54051;53.464;49.532;2022-09-09T11:29:45;4.07;;;1.25;;
67130;SDS011;54051;53.464;49.532;2022-09-09T11:40:30;2.92;;;1.10;;
67130;SDS011;54051;53.464;49.532;2022-09-09T11:43:05;5.30;;;1.33;;
67130;SDS011;54051;53.464;49.532;2022-09-09T11:45:33;4.57;;;1.83;;
67130;SDS011;54051;53.464;49.532;2022-09-09T11:48:01;4.43;;;1.90;;
67130;SDS011;54051;53.464;49.532;2022-09-09T11:50:30;5.07;;;1.83;;
67130;SDS011;54051;53.464;49.532;2022-09-09T11:55:39;4.50;;;1.70;;
67130;SDS011;54051;53.464;49.532;2022-09-09T11:58:06;3.75;;;1.00;;
67130;SDS011;54051;53.464;49.532;2022-09-09T12:00:43;2.67;;;0.90;;
67130;SDS011;54051;53.464;49.532;2022-09-09T12:03:31;3.33;;;1.10;;
67130;SDS011;54051;53.464;49.532;2022-09-09T12:06:19;4.35;;;1.40;;
67130;SDS011;54051;53.464;49.532;2022-09-09T12:08:56;4.18;;;1.20;;
67130;SDS011;54051;53.464;49.532;2022-09-09T12:11:31;6.18;;;2.08;;
67130;SDS011;54051;53.464;49.532;2022-09-09T12:13:58;3.90;;;1.13;;
67130;SDS011;54051;53.464;49.532;2022-09-09T12:19:12;3.78;;;0.90;;
67130;SDS011;54051;53.464;49.532;2022-09-09T12:24:37;3.40;;;0.90;;
67130;SDS011;54051;53.464;49.532;2022-09-09T12:27:24;3.50;;;1.20;;
67130;SDS011;54051;53.464;49.532;2022-09-09T12:30:02;5.95;;;2.20;;
67130;SDS011;54051;53.464;49.532;2022-09-09T12:32:29;5.20;;;1.80;;
67130;SDS011;54051;53.464;49.532;2022-09-09T12:34:57;4.13;;;1.50;;
67130;SDS011;54051;53.464;49.532;2022-09-09T12:37:39;5.68;;;2.20;;
67130;SDS011;54051;53.464;49.532;2022-09-09T12:40:27;5.30;;;1.90;;
67130;SDS011;54051;53.464;49.532;2022-09-09T12:42:56;3.40;;;1.20;;
67130;SDS011;54051;53.464;49.532;2022-09-09T12:45:25;3.80;;;1.48;;
67130;SDS011;54051;53.464;49.532;2022-09-09T12:50:25;5.78;;;1.85;;
67130;SDS011;54051;53.464;49.532;2022-09-09T12:52:55;3.70;;;1.40;;
67130;SDS011;54051;53.464;49.532;2022-09-09T12:55:29;3.65;;;1.40;;
67130;SDS011;54051;53.464;49.532;2022-09-09T12:57:59;5.65;;;1.77;;
67130;SDS011;54051;53.464;49.532;2022-09-09T13:00:31;3.60;;;1.10;;
67130;SDS011;54051;53.464;49.532;2022-09-09T13:03:02;3.40;;;1.20;;
67130;SDS011;54051;53.464;49.532;2022-09-09T13:05:41;3.70;;;1.35;;
67130;SDS011;54051;53.464;49.532;2022-09-09T13:08:11;4.03;;;1.60;;
67130;SDS011;54051;53.464;49.532;2022-09-09T13:10:40;4.88;;;1.95;;
67130;SDS011;54051;53.464;49.532;2022-09-09T13:13:19;4.90;;;1.88;;
67130;SDS011;54051;53.464;49.532;2022-09-09T13:15:51;5.87;;;2.30;;
67130;SDS011;54051;53.464;49.532;2022-09-09T13:18:22;7.13;;;2.60;;
67130;SDS011;54051;53.464;49.532;2022-09-09T13:20:51;8.00;;;2.63;;
67130;SDS011;54051;53.464;49.532;2022-09-09T13:23:18;8.80;;;3.33;;
67130;SDS011;54051;53.464;49.532;2022-09-09T13:25:52;7.13;;;2.30;;
67130;SDS011;54051;53.464;49.532;2022-09-09T13:28:22;6.13;;;1.90;;
67130;SDS011;54051;53.464;49.532;2022-09-09T13:30:57;6.55;;;2.30;;
67130;SDS011;54051;53.464;49.532;2022-09-09T13:33:37;7.55;;;2.85;;
67130;SDS011;54051;53.464;49.532;2022-09-09T13:36:05;10.52;;;4.05;;
67130;SDS011;54051;53.464;49.532;2022-09-09T13:41:42;6.28;;;2.40;;
67130;SDS011;54051;53.464;49.532;2022-09-09T13:44:23;5.35;;;1.77;;
67130;SDS011;54051;53.464;49.532;2022-09-09T13:49:46;4.05;;;1.38;;
67130;SDS011;54051;53.464;49.532;2022-09-09T13:52:16;5.80;;;2.25;;
67130;SDS011;54051;53.464;49.532;2022-09-09T13:54:50;4.65;;;1.40;;
67130;SDS011;54051;53.464;49.532;2022-09-09T13:57:18;4.95;;;1.27;;
67130;SDS011;54051;53.464;49.532;2022-09-09T13:59:46;4.10;;;1.30;;
67130;SDS011;54051;53.464;49.532;2022-09-09T14:02:12;5.05;;;1.38;;
67130;SDS011;54051;53.464;49.532;2022-09-09T14:04:47;5.43;;;1.80;;
67130;SDS011;54051;53.464;49.532;2022-09-09T14:07:18;6.55;;;2.50;;
67130;SDS011;54051;53.464;49.532;2022-09-09T14:09:44;5.77;;;1.73;;
67130;SDS011;54051;53.464;49.532;2022-09-09T14:12:15;6.60;;;2.40;;
67130;SDS011;54051;53.464;49.532;2022-09-09T14:14:41;5.28;;;2.00;;
67130;SDS011;54051;53.464;49.532;2022-09-09T14:17:08;5.18;;;2.00;;
67130;SDS011;54051;53.464;49.532;2022-09-09T14:19:34;5.00;;;1.70;;
67130;SDS011;54051;53.464;49.532;2022-09-09T14:22:00;5.50;;;2.10;;
67130;SDS011;54051;53.464;49.532;2022-09-09T14:24:27;7.13;;;2.20;;
67130;SDS011;54051;53.464;49.532;2022-09-09T14:26:53;6.95;;;2.45;;
67130;SDS011;54051;53.464;49.532;2022-09-09T14:29:20;8.35;;;2.20;;
67130;SDS011;54051;53.464;49.532;2022-09-09T14:31:48;5.20;;;1.77;;
67130;SDS011;54051;53.464;49.532;2022-09-09T14:34:15;6.50;;;2.38;;
67130;SDS011;54051;53.464;49.532;2022-09-09T14:36:43;5.38;;;2.10;;
67130;SDS011;54051;53.464;49.532;2022-09-09T14:39:14;6.88;;;3.03;;
67130;SDS011;54051;53.464;49.532;2022-09-09T14:41:41;5.93;;;1.90;;
67130;SDS011;54051;53.464;49.532;2022-09-09T14:44:07;7.10;;;2.13;;
67130;SDS011;54051;53.464;49.532;2022-09-09T14:46:34;7.20;;;2.30;;
67130;SDS011;54051;53.464;49.532;2022-09-09T14:48:59;6.63;;;2.20;;
67130;SDS011;54051;53.464;49.532;2022-09-09T14:51:26;9.50;;;3.42;;
67130;SDS011;54051;53.464;49.532;2022-09-09T14:53:56;10.40;;;4.20;;
67130;SDS011;54051;53.464;49.532;2022-09-09T14:56:25;11.27;;;4.03;;
67130;SDS011;54051;53.464;49.532;2022-09-09T14:58:53;7.72;;;2.78;;
67130;SDS011;54051;53.464;49.532;2022-09-09T15:01:20;9.65;;;3.10;;
67130;SDS011;54051;53.464;49.532;2022-09-09T15:03:54;9.55;;;3.10;;
67130;SDS011;54051;53.464;49.532;2022-09-09T15:06:28;7.88;;;2.60;;
67130;SDS011;54051;53.464;49.532;2022-09-09T15:08:55;6.13;;;2.30;;
67130;SDS011;54051;53.464;49.532;2022-09-09T15:11:28;6.00;;;2.15;;
67130;SDS011;54051;53.464;49.532;2022-09-09T15:13:59;5.00;;;2.30;;
67130;SDS011;54051;53.464;49.532;2022-09-09T15:16:27;8.40;;;2.63;;
67130;SDS011;54051;53.464;49.532;2022-09-09T15:18:54;7.88;;;2.88;;
67130;SDS011;54051;53.464;49.532;2022-09-09T15:21:22;6.40;;;2.65;;
67130;SDS011;54051;53.464;49.532;2022-09-09T15:23:50;7.55;;;2.20;;
67130;SDS011;54051;53.464;49.532;2022-09-09T15:26:16;5.83;;;2.00;;
67130;SDS011;54051;53.464;49.532;2022-09-09T15:28:47;5.85;;;2.10;;
67130;SDS011;54051;53.464;49.532;2022-09-09T15:31:24;4.97;;;1.60;;
67130;SDS011;54051;53.464;49.532;2022-09-09T15:33:54;5.32;;;1.92;;
67130;SDS011;54051;53.464;49.532;2022-09-09T15:36:28;4.13;;;1.80;;
67130;SDS011;54051;53.464;49.532;2022-09-09T15:38:57;3.47;;;1.40;;
67130;SDS011;54051;53.464;49.532;2022-09-09T15:41:24;3.67;;;1.45;;
67130;SDS011;54051;53.464;49.532;2022-09-09T15:43:51;6.30;;;2.93;;
67130;SDS011;54051;53.464;49.532;2022-09-09T15:46:27;4.28;;;1.83;;
67130;SDS011;54051;53.464;49.532;2022-09-09T15:48:58;4.55;;;2.08;;
67130;SDS011;54051;53.464;49.532;2022-09-09T15:51:46;6.60;;;2.53;;
67130;SDS011;54051;53.464;49.532;2022-09-09T15:54:16;3.30;;;1.20;;
67130;SDS011;54051;53.464;49.532;2022-09-09T15:56:44;3.40;;;1.20;;
67130;SDS011;54051;53.464;49.532;2022-09-09T15:59:11;4.38;;;1.67;;
67130;SDS011;54051;53.464;49.532;2022-09-09T16:01:38;4.93;;;2.00;;
67130;SDS011;54051;53.464;49.532;2022-09-09T16:06:30;6.10;;;2.60;;
67130;SDS011;54051;53.464;49.532;2022-09-09T16:08:57;5.20;;;2.10;;
67130;SDS011;54051;53.464;49.532;2022-09-09T16:11:30;3.97;;;1.20;;
67130;SDS011;54051;53.464;49.532;2022-09-09T16:13:57;3.53;;;1.30;;
67130;SDS011;54051;53.464;49.532;2022-09-09T16:16:26;3.65;;;1.40;;
67130;SDS011;54051;53.464;49.532;2022-09-09T16:18:55;3.53;;;1.30;;
67130;SDS011;54051;53.464;49.532;2022-09-09T16:21:29;2.97;;;1.10;;
67130;SDS011;54051;53.464;49.532;2022-09-09T16:23:57;3.97;;;1.38;;
67130;SDS011;54051;53.464;49.532;2022-09-09T16:26:25;2.97;;;1.10;;
67130;SDS011;54051;53.464;49.532;2022-09-09T16:28:53;3.45;;;1.20;;
67130;SDS011;54051;53.464;49.532;2022-09-09T16:31:22;3.80;;;1.20;;
67130;SDS011;54051;53.464;49.532;2022-09-09T16:33:49;4.45;;;1.60;;
67130;SDS011;54051;53.464;49.532;2022-09-09T16:36:25;4.78;;;1.85;;
67130;SDS011;54051;53.464;49.532;2022-09-09T16:38:56;4.35;;;1.50;;
67130;SDS011;54051;53.464;49.532;2022-09-09T16:41:24;4.68;;;1.67;;
67130;SDS011;54051;53.464;49.532;2022-09-09T16:44:02;4.25;;;1.75;;
67130;SDS011;54051;53.464;49.532;2022-09-09T16:46:31;4.05;;;1.63;;
67130;SDS011;54051;53.464;49.532;2022-09-09T16:48:59;4.53;;;1.55;;
67130;SDS011;54051;53.464;49.532;2022-09-09T16:51:28;3.90;;;1.42;;
67130;SDS011;54051;53.464;49.532;2022-09-09T16:53:57;4.35;;;1.70;;
67130;SDS011;54051;53.464;49.532;2022-09-09T16:56:26;4.65;;;1.65;;
67130;SDS011;54051;53.464;49.532;2022-09-09T16:58:57;4.53;;;2.00;;
67130;SDS011;54051;53.464;49.532;2022-09-09T17:01:28;4.45;;;1.63;;
67130;SDS011;54051;53.464;49.532;2022-09-09T17:03:57;4.65;;;1.95;;
67130;SDS011;54051;53.464;49.532;2022-09-09T17:06:26;4.05;;;1.60;;
67130;SDS011;54051;53.464;49.532;2022-09-09T17:09:01;3.28;;;1.30;;
67130;SDS011;54051;53.464;49.532;2022-09-09T17:11:29;4.00;;;1.35;;
67130;SDS011;54051;53.464;49.532;2022-09-09T17:13:56;4.03;;;1.50;;
67130;SDS011;54051;53.464;49.532;2022-09-09T17:16:24;5.28;;;2.05;;
67130;SDS011;54051;53.464;49.532;2022-09-09T17:18:54;4.13;;;1.77;;
67130;SDS011;54051;53.464;49.532;2022-09-09T17:23:48;3.22;;;1.10;;
67130;SDS011;54051;53.464;49.532;2022-09-09T17:26:16;3.45;;;1.10;;
67130;SDS011;54051;53.464;49.532;2022-09-09T17:28:44;3.85;;;1.23;;
67130;SDS011;54051;53.464;49.532;2022-09-09T17:31:16;3.10;;;1.10;;
67130;SDS011;54051;53.464;49.532;2022-09-09T17:33:44;3.20;;;1.20;;
67130;SDS011;54051;53.464;49.532;2022-09-09T17:36:13;3.40;;;1.30;;
67130;SDS011;54051;53.464;49.532;2022-09-09T17:38:41;3.55;;;1.10;;